Time;durP1;ratioP1;P1;durP2;ratioP2;P2;SDS_P1;SDS_P2;PMS_P1;PMS_P2;Temp;Humidity;BMP_temperature;BMP_pressure;BME280_temperature;BME280_humidity;BME280_pressure;Samples;Min_cycle;Max_cycle;Signal;HPM_P1;HPM_P2
2022/02/22 00:02:23;;;;;;;4.72;1.60;;;2.20;99.90;;;;;;5089952;28;20187;-69
2022/02/22 00:04:49;;;;;;;4.00;1.98;;;2.20;99.90;;;;;;5089237;28;20172;-70
2022/02/22 00:07:15;;;;;;;7.80;2.92;;;2.20;99.90;;;;;;5090440;28;20195;-70
2022/02/22 00:09:41;;;;;;;12.45;3.72;;;2.20;99.90;;;;;;5090438;28;20168;-71
2022/02/22 00:12:07;;;;;;;3.67;2.28;;;2.10;99.90;;;;;;5090564;28;20164;-69
2022/02/22 00:14:33;;;;;;;3.67;2.00;;;2.00;99.90;;;;;;5090405;28;20195;-69
2022/02/22 00:16:59;;;;;;;3.15;1.67;;;1.90;99.90;;;;;;5090408;28;20191;-69
2022/02/22 00:19:26;;;;;;;3.28;1.60;;;1.80;99.90;;;;;;5090228;28;20196;-70
2022/02/22 00:21:53;;;;;;;3.67;2.03;;;1.60;99.90;;;;;;5078630;28;20175;-68
2022/02/22 00:24:20;;;;;;;4.20;1.90;;;1.50;99.90;;;;;;5079897;28;20191;-69
2022/02/22 00:26:47;;;;;;;6.68;2.28;;;1.50;99.90;;;;;;5070106;28;20661;-70
2022/02/22 00:29:13;;;;;;;3.42;1.50;;;1.40;99.90;;;;;;5070132;28;20172;-70
2022/02/22 00:31:39;;;;;;;3.38;1.55;;;1.20;99.90;;;;;;5070082;28;20161;-69
2022/02/22 00:34:06;;;;;;;4.53;1.92;;;1.20;99.90;;;;;;5072244;28;20157;-71
2022/02/22 00:36:34;;;;;;;5.00;1.70;;;1.10;99.90;;;;;;5089861;28;20187;-69
2022/02/22 00:39:00;;;;;;;2.80;1.48;;;1.00;99.90;;;;;;5089987;28;20160;-69
2022/02/22 00:41:27;;;;;;;7.25;2.03;;;1.00;99.90;;;;;;5089597;28;20156;-69
2022/02/22 00:43:53;;;;;;;4.18;1.90;;;0.90;99.90;;;;;;5089847;28;20289;-70
2022/02/22 00:46:19;;;;;;;4.68;2.22;;;0.80;99.90;;;;;;5089742;28;20192;-69
2022/02/22 00:48:45;;;;;;;3.00;1.60;;;0.90;99.90;;;;;;5089833;28;20155;-70
2022/02/22 00:51:11;;;;;;;4.22;1.60;;;1.10;99.90;;;;;;5081505;28;20185;-69
2022/02/22 00:53:36;;;;;;;3.30;1.85;;;1.20;99.90;;;;;;5086864;28;20243;-71
2022/02/22 00:56:02;;;;;;;9.20;1.75;;;1.40;99.90;;;;;;5089704;28;20163;-71
2022/02/22 00:58:28;;;;;;;6.30;2.05;;;1.40;99.90;;;;;;5088495;28;20179;-70
2022/02/22 01:00:54;;;;;;;3.63;2.10;;;1.60;99.90;;;;;;5089479;28;20208;-70
2022/02/22 01:03:20;;;;;;;4.82;2.17;;;1.70;99.90;;;;;;5088953;28;20219;-70
2022/02/22 01:05:46;;;;;;;5.18;2.38;;;1.60;99.90;;;;;;5089205;28;20190;-70
2022/02/22 01:08:12;;;;;;;12.70;3.80;;;1.60;99.90;;;;;;5088911;28;20264;-68
2022/02/22 01:10:38;;;;;;;2.95;1.65;;;1.70;99.90;;;;;;5089645;28;20242;-69
2022/02/22 01:13:04;;;;;;;2.50;1.80;;;1.80;99.90;;;;;;5089538;28;20645;-69
2022/02/22 01:15:30;;;;;;;2.67;1.73;;;1.80;99.90;;;;;;5089518;28;20159;-69
2022/02/22 01:17:56;;;;;;;3.47;2.45;;;1.70;99.90;;;;;;5089396;28;20192;-70
2022/02/22 01:20:22;;;;;;;4.25;1.90;;;1.70;99.90;;;;;;5084521;28;20204;-69
2022/02/22 01:22:52;;;;;;;3.35;1.73;;;1.70;99.90;;;;;;5076712;28;20637;-68
2022/02/22 01:25:18;;;;;;;4.95;1.90;;;1.80;99.90;;;;;;5070903;28;20173;-69
2022/02/22 01:27:44;;;;;;;6.95;1.58;;;1.70;99.90;;;;;;5069057;28;20180;-70
2022/02/22 01:30:10;;;;;;;3.28;1.65;;;1.60;99.90;;;;;;5067913;28;20634;-70
2022/02/22 01:32:36;;;;;;;7.00;3.10;;;1.60;99.90;;;;;;5069161;28;20153;-69
2022/02/22 01:35:04;;;;;;;6.55;2.33;;;1.60;99.90;;;;;;5079279;28;20231;-69
2022/02/22 01:37:30;;;;;;;3.75;2.03;;;1.50;99.90;;;;;;5089082;28;20202;-69
2022/02/22 01:39:55;;;;;;;5.65;2.00;;;1.30;99.90;;;;;;5089173;28;20188;-69
2022/02/22 01:42:21;;;;;;;1.95;1.35;;;1.30;99.90;;;;;;5088847;28;20183;-69
2022/02/22 01:44:49;;;;;;;2.08;1.48;;;1.40;99.90;;;;;;5089138;28;20239;-70
2022/02/22 01:47:16;;;;;;;5.65;1.90;;;1.40;99.90;;;;;;5089279;28;20262;-69
2022/02/22 01:49:43;;;;;;;1.98;1.65;;;1.40;99.90;;;;;;5089011;28;20148;-69
2022/02/22 01:52:09;;;;;;;4.55;1.85;;;1.30;99.90;;;;;;5089030;28;20176;-70
2022/02/22 01:54:35;;;;;;;8.07;1.83;;;1.30;99.90;;;;;;5073561;28;20207;-69
2022/02/22 01:57:02;;;;;;;3.35;1.60;;;1.30;99.90;;;;;;5069017;28;20173;-70
2022/02/22 01:59:28;;;;;;;6.47;2.00;;;1.30;99.90;;;;;;5069000;28;20180;-69
2022/02/22 02:01:54;;;;;;;5.43;1.77;;;1.20;99.90;;;;;;5068871;28;20161;-69
2022/02/22 02:04:20;;;;;;;2.00;1.17;;;1.20;99.90;;;;;;5084406;28;20238;-70
2022/02/22 02:06:47;;;;;;;6.60;1.90;;;1.20;99.90;;;;;;5087720;28;20172;-69
2022/02/22 02:09:13;;;;;;;6.85;1.45;;;1.10;99.90;;;;;;5088929;28;20171;-69
2022/02/22 02:11:59;;;;;;;3.13;1.73;;;1.20;99.90;;;;;;5088954;28;20159;-70
2022/02/22 02:14:27;;;;;;;1.95;1.23;;;1.30;99.90;;;;;;5088436;28;20691;-69
2022/02/22 02:16:55;;;;;;;1.33;1.20;;;1.40;99.90;;;;;;5088782;28;20156;-69
2022/02/22 02:19:21;;;;;;;2.63;1.42;;;1.40;99.90;;;;;;5091908;28;20267;-69
2022/02/22 02:21:49;;;;;;;2.85;1.35;;;1.30;99.90;;;;;;5075843;28;20164;-69
2022/02/22 02:24:20;;;;;;;3.45;1.58;;;1.20;99.90;;;;;;5072630;28;20222;-69
2022/02/22 02:26:47;;;;;;;2.67;1.52;;;1.20;99.90;;;;;;5092474;28;20153;-70
2022/02/22 02:29:17;;;;;;;3.45;1.92;;;1.10;99.90;;;;;;5092267;28;20659;-69
2022/02/22 02:31:45;;;;;;;4.00;1.58;;;1.00;99.90;;;;;;5092383;28;20155;-69
2022/02/22 02:34:14;;;;;;;3.65;1.33;;;1.00;99.90;;;;;;5090547;28;20195;-70
2022/02/22 02:36:41;;;;;;;1.98;1.15;;;0.80;99.90;;;;;;5092268;28;20181;-70
2022/02/22 02:39:08;;;;;;;2.60;1.40;;;0.60;99.90;;;;;;5092219;28;20163;-70
2022/02/22 02:41:34;;;;;;;4.68;2.13;;;0.50;99.90;;;;;;5092169;28;20179;-69
2022/02/22 02:44:07;;;;;;;5.10;1.50;;;0.40;99.90;;;;;;5092074;28;20184;-69
2022/02/22 02:46:33;;;;;;;3.40;1.45;;;0.40;99.90;;;;;;5091976;28;20155;-70
2022/02/22 02:48:59;;;;;;;5.85;1.88;;;0.30;99.90;;;;;;5091862;28;20177;-69
2022/02/22 02:51:26;;;;;;;3.30;2.00;;;0.10;99.90;;;;;;5091926;28;20153;-70
2022/02/22 02:53:53;;;;;;;4.28;1.40;;;0.10;99.90;;;;;;5091340;28;20209;-69
2022/02/22 02:56:24;;;;;;;3.95;1.80;;;0.10;99.90;;;;;;5090608;28;20647;-69
2022/02/22 02:58:58;;;;;;;5.00;2.05;;;0.00;99.90;;;;;;5091680;28;20172;-69
2022/02/22 03:01:27;;;;;;;1.85;1.48;;;0.10;99.90;;;;;;5091691;28;20244;-69
2022/02/22 03:03:53;;;;;;;2.17;1.38;;;0.00;99.90;;;;;;5089871;28;20219;-70
2022/02/22 03:06:20;;;;;;;2.85;1.75;;;-0.10;99.90;;;;;;5091879;28;20160;-71
2022/02/22 03:08:46;;;;;;;5.28;1.50;;;-0.10;99.90;;;;;;5091627;28;20160;-71
2022/02/22 03:11:12;;;;;;;2.00;1.40;;;-0.10;99.90;;;;;;5091529;28;20232;-72
2022/02/22 03:13:39;;;;;;;5.25;2.53;;;-0.20;99.90;;;;;;5090897;28;20255;-72
2022/02/22 03:16:05;;;;;;;2.80;1.70;;;-0.20;99.90;;;;;;5091420;28;20175;-71
2022/02/22 03:18:32;;;;;;;4.70;2.38;;;-0.20;99.90;;;;;;5091317;28;20168;-72
2022/02/22 03:20:58;;;;;;;6.72;2.67;;;-0.20;99.90;;;;;;5081516;28;20215;-72
2022/02/22 03:23:23;;;;;;;2.40;2.20;;;-0.30;99.90;;;;;;5071734;28;20189;-71
2022/02/22 03:25:51;;;;;;;3.65;2.28;;;-0.40;99.90;;;;;;5072648;28;20180;-72
2022/02/22 03:28:18;;;;;;;5.90;2.08;;;-0.20;99.90;;;;;;5076798;28;20231;-71
2022/02/22 03:30:44;;;;;;;6.13;1.92;;;-0.10;99.90;;;;;;5090200;28;20160;-71
2022/02/22 03:33:11;;;;;;;4.88;2.40;;;-0.10;99.90;;;;;;5090964;28;20210;-72
2022/02/22 03:35:39;;;;;;;5.60;2.38;;;-0.10;99.90;;;;;;5091052;28;20160;-72
2022/02/22 03:38:06;;;;;;;5.50;2.50;;;-0.10;99.90;;;;;;5090850;28;20160;-72
2022/02/22 03:40:32;;;;;;;5.88;2.42;;;0.10;99.90;;;;;;5090810;28;20184;-72
2022/02/22 03:42:59;;;;;;;4.07;1.67;;;0.00;99.90;;;;;;5090900;28;20153;-72
2022/02/22 03:45:25;;;;;;;3.20;1.90;;;0.00;99.90;;;;;;5090369;28;20216;-72
2022/02/22 03:47:51;;;;;;;3.63;1.92;;;-0.10;99.90;;;;;;5090846;28;20158;-72
2022/02/22 03:50:17;;;;;;;4.07;2.15;;;-0.10;99.90;;;;;;5090778;28;20182;-72
2022/02/22 03:52:44;;;;;;;3.88;1.98;;;-0.10;99.90;;;;;;5089194;28;20187;-72
2022/02/22 03:55:12;;;;;;;5.80;2.50;;;-0.10;99.90;;;;;;5090191;28;20219;-72
2022/02/22 03:57:38;;;;;;;6.90;2.78;;;-0.10;99.90;;;;;;5090477;28;20160;-72
2022/02/22 04:00:11;;;;;;;4.72;2.80;;;-0.10;99.90;;;;;;5090414;28;20184;-72
2022/02/22 04:02:37;;;;;;;5.75;2.30;;;-0.20;99.90;;;;;;5090063;28;20158;-72
2022/02/22 04:05:05;;;;;;;11.48;2.60;;;-0.30;99.90;;;;;;5089911;28;20219;-72
2022/02/22 04:07:32;;;;;;;6.95;2.33;;;-0.40;99.90;;;;;;5090374;28;20153;-72
2022/02/22 04:09:58;;;;;;;4.97;2.25;;;-0.30;99.90;;;;;;5090269;28;20203;-72
2022/02/22 04:12:24;;;;;;;9.48;3.35;;;-0.20;99.90;;;;;;5089817;28;20164;-72
2022/02/22 04:14:50;;;;;;;8.43;2.72;;;-0.20;99.90;;;;;;5088574;28;20183;-72
2022/02/22 04:17:16;;;;;;;8.20;2.85;;;-0.10;99.90;;;;;;5089982;28;20156;-72
2022/02/22 04:19:42;;;;;;;4.30;2.90;;;0.00;99.90;;;;;;5089867;28;20680;-72
2022/02/22 04:22:08;;;;;;;6.07;2.90;;;0.10;99.90;;;;;;5089880;28;20160;-72
2022/02/22 04:24:36;;;;;;;5.65;2.60;;;0.20;99.90;;;;;;5089925;28;20152;-73
2022/02/22 04:27:05;;;;;;;8.75;3.22;;;0.30;99.90;;;;;;5089984;28;20220;-72
2022/02/22 04:29:30;;;;;;;4.63;2.63;;;0.50;99.90;;;;;;5089906;28;20219;-72
2022/02/22 04:31:57;;;;;;;4.57;2.35;;;0.60;99.90;;;;;;5089791;28;20612;-71
2022/02/22 04:34:24;;;;;;;6.25;2.92;;;0.80;99.90;;;;;;5089656;28;20178;-73
2022/02/22 04:36:50;;;;;;;6.70;2.40;;;0.90;99.90;;;;;;5089850;28;20159;-73
2022/02/22 04:39:16;;;;;;;3.83;2.63;;;1.00;99.90;;;;;;5089655;28;20160;-73
2022/02/22 04:41:42;;;;;;;11.93;3.30;;;1.10;99.90;;;;;;5089559;28;20156;-73
2022/02/22 04:44:08;;;;;;;10.85;3.17;;;1.20;99.90;;;;;;5089732;28;20201;-73
2022/02/22 04:46:34;;;;;;;5.63;2.80;;;1.10;99.90;;;;;;5089102;28;20544;-73
2022/02/22 04:49:00;;;;;;;4.82;2.67;;;1.20;99.90;;;;;;5089519;28;20210;-73
2022/02/22 04:51:26;;;;;;;3.78;2.08;;;1.30;99.90;;;;;;5089470;28;20187;-73
2022/02/22 04:53:52;;;;;;;6.63;1.88;;;1.40;99.90;;;;;;5089431;28;20160;-73
2022/02/22 04:56:18;;;;;;;2.83;1.65;;;1.50;99.90;;;;;;5089230;28;20187;-72
2022/02/22 04:58:44;;;;;;;2.90;1.75;;;1.50;99.90;;;;;;5089464;28;20167;-72
2022/02/22 05:01:10;;;;;;;3.45;1.67;;;1.60;99.90;;;;;;5089123;28;20199;-72
2022/02/22 05:03:36;;;;;;;6.45;1.95;;;1.60;99.90;;;;;;5089227;28;20704;-72
2022/02/22 05:06:02;;;;;;;3.05;1.80;;;1.60;99.90;;;;;;5088965;28;20186;-71
2022/02/22 05:08:28;;;;;;;4.00;1.67;;;1.60;99.90;;;;;;5089236;28;20160;-72
2022/02/22 05:10:54;;;;;;;3.05;2.17;;;1.60;99.90;;;;;;5089195;28;20237;-72
2022/02/22 05:13:20;;;;;;;5.80;1.92;;;1.60;99.90;;;;;;5089306;28;20215;-72
2022/02/22 05:15:46;;;;;;;5.43;2.53;;;1.60;99.90;;;;;;5089322;28;20156;-72
2022/02/22 05:18:12;;;;;;;3.00;2.10;;;1.60;99.90;;;;;;5089299;28;20228;-72
2022/02/22 05:20:54;;;;;;;8.63;2.28;;;1.60;99.90;;;;;;5087628;28;20207;-72
2022/02/22 05:23:33;;;;;;;6.35;1.27;;;1.70;99.90;;;;;;5089204;28;20152;-72
2022/02/22 05:26:00;;;;;;;4.90;2.03;;;1.80;99.90;;;;;;5088753;28;20168;-72
2022/02/22 05:28:27;;;;;;;9.10;2.20;;;1.90;99.90;;;;;;5089179;28;20613;-72
2022/02/22 05:30:54;;;;;;;6.20;1.98;;;1.90;99.90;;;;;;5089032;28;20280;-72
2022/02/22 05:33:21;;;;;;;6.40;1.40;;;2.00;99.90;;;;;;5089099;28;20230;-72
2022/02/22 05:35:49;;;;;;;7.07;2.15;;;2.10;99.90;;;;;;5087292;28;20212;-72
2022/02/22 05:38:16;;;;;;;4.88;2.25;;;2.10;99.90;;;;;;5088825;28;20222;-72
2022/02/22 05:40:42;;;;;;;1.83;1.42;;;2.20;99.90;;;;;;5088895;28;20290;-72
2022/02/22 05:43:09;;;;;;;5.07;1.27;;;2.20;99.90;;;;;;5088724;28;20172;-72
2022/02/22 05:45:35;;;;;;;5.30;2.00;;;2.20;99.90;;;;;;5088808;28;20181;-72
2022/02/22 05:48:02;;;;;;;3.42;1.33;;;2.20;99.90;;;;;;5087488;28;20175;-72
2022/02/22 05:50:28;;;;;;;5.75;1.52;;;2.10;99.90;;;;;;5087584;28;20202;-72
2022/02/22 05:52:57;;;;;;;2.70;1.48;;;2.00;99.90;;;;;;5089893;28;20164;-72
2022/02/22 05:55:24;;;;;;;2.58;1.40;;;1.90;99.90;;;;;;5092422;28;20561;-72
2022/02/22 05:57:51;;;;;;;2.78;1.60;;;1.90;99.90;;;;;;5092767;28;20175;-72
2022/02/22 06:00:20;;;;;;;8.70;2.03;;;1.80;99.90;;;;;;5092697;28;20305;-72
2022/02/22 06:02:46;;;;;;;3.30;1.92;;;1.60;99.90;;;;;;5092508;28;20211;-72
2022/02/22 06:05:12;;;;;;;4.65;2.92;;;1.50;99.90;;;;;;5092106;28;20164;-72
2022/02/22 06:07:39;;;;;;;4.78;1.60;;;1.50;99.90;;;;;;5092502;28;20517;-72
2022/02/22 06:10:06;;;;;;;4.72;2.17;;;1.60;99.90;;;;;;5092479;28;20196;-72
2022/02/22 06:12:33;;;;;;;4.47;1.95;;;1.50;99.90;;;;;;5092495;28;20152;-72
2022/02/22 06:14:59;;;;;;;9.57;2.47;;;1.50;99.90;;;;;;5092364;28;20651;-72
2022/02/22 06:17:24;;;;;;;4.15;2.47;;;1.50;99.90;;;;;;5091357;28;20183;-72
2022/02/22 06:19:51;;;;;;;8.93;3.03;;;1.50;99.90;;;;;;5092167;28;20214;-72
2022/02/22 06:22:17;;;;;;;8.32;3.20;;;1.70;99.90;;;;;;5092187;28;20160;-72
2022/02/22 06:24:43;;;;;;;6.20;1.98;;;1.80;99.90;;;;;;5092102;28;20164;-73
2022/02/22 06:27:09;;;;;;;4.93;2.15;;;2.10;99.90;;;;;;5089864;28;20172;-72
2022/02/22 06:29:40;;;;;;;6.15;2.33;;;2.20;99.90;;;;;;5092168;28;20200;-72
2022/02/22 06:32:06;;;;;;;3.33;2.00;;;2.20;99.90;;;;;;5092019;28;20624;-72
2022/02/22 06:34:33;;;;;;;3.63;2.00;;;2.20;99.90;;;;;;5092171;28;20152;-72
2022/02/22 06:36:59;;;;;;;5.20;2.22;;;2.20;99.90;;;;;;5091630;28;20619;-72
2022/02/22 06:39:25;;;;;;;9.50;2.08;;;2.20;99.90;;;;;;5091661;28;20210;-72
2022/02/22 06:41:51;;;;;;;5.38;1.50;;;2.00;99.90;;;;;;5091797;28;20159;-72
2022/02/22 06:44:16;;;;;;;7.55;3.22;;;1.90;99.90;;;;;;5091730;28;20175;-72
2022/02/22 06:46:42;;;;;;;8.35;4.13;;;1.80;99.90;;;;;;5090615;28;20171;-72
2022/02/22 06:49:08;;;;;;;6.38;2.88;;;1.70;99.90;;;;;;5091575;28;20147;-72
2022/02/22 06:51:34;;;;;;;7.85;3.20;;;1.80;99.90;;;;;;5091696;28;20156;-72
2022/02/22 06:54:00;;;;;;;10.27;3.45;;;1.90;99.90;;;;;;5091504;28;20176;-72
2022/02/22 06:56:26;;;;;;;16.20;2.97;;;2.00;99.90;;;;;;5091078;28;20225;-72
2022/02/22 06:58:52;;;;;;;7.97;2.53;;;2.00;99.90;;;;;;5091450;28;20160;-72
2022/02/22 07:01:18;;;;;;;7.75;2.70;;;2.10;99.90;;;;;;5091408;28;20691;-72
2022/02/22 07:03:44;;;;;;;9.77;2.70;;;2.10;99.90;;;;;;5090761;28;20716;-72
2022/02/22 07:06:10;;;;;;;5.40;2.80;;;2.10;99.90;;;;;;5090272;28;20211;-72
2022/02/22 07:08:36;;;;;;;9.25;3.28;;;2.20;99.90;;;;;;5091319;28;20156;-72
2022/02/22 07:11:02;;;;;;;3.65;2.13;;;2.50;99.90;;;;;;5091331;28;20722;-71
2022/02/22 07:13:28;;;;;;;10.48;3.03;;;2.90;99.90;;;;;;5091194;28;20164;-72
2022/02/22 07:15:53;;;;;;;7.75;2.33;;;3.00;99.90;;;;;;5091303;28;20165;-72
2022/02/22 07:18:19;;;;;;;5.88;2.00;;;3.20;99.90;;;;;;5090786;28;20188;-72
2022/02/22 07:20:45;;;;;;;13.43;2.38;;;3.40;99.90;;;;;;5090866;28;20202;-72
2022/02/22 07:23:11;;;;;;;3.53;1.80;;;4.20;99.90;;;;;;5091123;28;20164;-72
2022/02/22 07:25:37;;;;;;;9.98;2.65;;;4.40;99.90;;;;;;5091044;28;20160;-71
2022/02/22 07:28:03;;;;;;;10.88;3.17;;;4.90;99.90;;;;;;5090533;28;20706;-71
2022/02/22 07:30:30;;;;;;;5.18;2.22;;;5.20;99.90;;;;;;5090864;28;20256;-72
2022/02/22 07:33:00;;;;;;;3.17;1.48;;;5.20;99.90;;;;;;5091029;28;20156;-72
2022/02/22 07:35:27;;;;;;;6.82;2.40;;;5.20;99.90;;;;;;5091082;28;20159;-71
2022/02/22 07:37:53;;;;;;;5.15;1.50;;;5.00;99.90;;;;;;5090466;28;20206;-71
2022/02/22 07:40:21;;;;;;;2.58;1.25;;;5.00;99.90;;;;;;5090744;28;20191;-71
2022/02/22 07:42:48;;;;;;;2.47;1.00;;;5.00;99.90;;;;;;5090655;28;20168;-71
2022/02/22 07:45:15;;;;;;;7.35;1.17;;;5.50;99.90;;;;;;5090712;28;20163;-71
2022/02/22 07:47:42;;;;;;;1.85;0.88;;;5.50;99.90;;;;;;5090165;28;20200;-71
2022/02/22 07:50:09;;;;;;;1.58;0.90;;;5.50;99.90;;;;;;5090634;28;20695;-72
2022/02/22 07:52:36;;;;;;;3.53;1.05;;;5.50;99.90;;;;;;5090657;28;20241;-71
2022/02/22 07:55:05;;;;;;;1.08;0.90;;;5.50;99.90;;;;;;5090659;28;20160;-72
2022/02/22 07:57:32;;;;;;;0.95;0.90;;;5.90;99.90;;;;;;5090390;28;20164;-71
2022/02/22 07:59:58;;;;;;;4.70;0.90;;;6.60;99.90;;;;;;5090313;28;20211;-72
2022/02/22 08:02:24;;;;;;;1.08;0.82;;;6.70;99.90;;;;;;5090140;28;20186;-72
2022/02/22 08:04:50;;;;;;;1.50;0.75;;;6.90;99.90;;;;;;5090269;28;20156;-72
2022/02/22 08:07:17;;;;;;;3.15;1.05;;;7.10;99.90;;;;;;5089939;28;20263;-72
2022/02/22 08:09:43;;;;;;;0.60;0.22;;;7.60;99.90;;;;;;5090117;28;20622;-72
2022/02/22 08:12:09;;;;;;;0.28;0.15;;;7.80;99.90;;;;;;5090184;28;20161;-72
2022/02/22 08:14:35;;;;;;;0.30;0.30;;;7.50;99.90;;;;;;5089880;28;20211;-72
2022/02/22 08:17:01;;;;;;;2.10;0.20;;;7.50;99.90;;;;;;5089736;28;20160;-72
2022/02/22 08:19:27;;;;;;;2.78;0.38;;;7.70;99.90;;;;;;5089510;28;20206;-72
2022/02/22 08:21:54;;;;;;;3.00;0.30;;;9.10;99.90;;;;;;5089909;28;20182;-72
2022/02/22 08:24:24;;;;;;;1.70;0.35;;;10.80;99.90;;;;;;5089717;28;20160;-72
2022/02/22 08:26:56;;;;;;;1.17;0.47;;;9.90;99.90;;;;;;5089898;28;20214;-72
2022/02/22 08:29:23;;;;;;;6.07;3.47;;;9.60;99.90;;;;;;5089541;28;20206;-72
2022/02/22 08:31:49;;;;;;;9.55;4.30;;;10.60;99.90;;;;;;5089676;28;20156;-72
2022/02/22 08:34:15;;;;;;;15.95;3.95;;;13.20;99.90;;;;;;5089871;28;20163;-72
2022/02/22 08:36:41;;;;;;;12.00;3.63;;;15.10;99.90;;;;;;5089715;28;20192;-72
2022/02/22 08:39:07;;;;;;;4.93;3.00;;;17.00;98.80;;;;;;5089718;28;20608;-72
2022/02/22 08:41:33;;;;;;;3.42;2.50;;;17.90;96.80;;;;;;5089644;28;20195;-73
2022/02/22 08:44:01;;;;;;;9.63;2.92;;;17.90;96.60;;;;;;5089756;28;20586;-72
2022/02/22 08:46:28;;;;;;;3.80;2.30;;;19.00;95.20;;;;;;5089512;28;20191;-72
2022/02/22 08:48:54;;;;;;;4.72;1.83;;;20.10;93.60;;;;;;5089259;28;20640;-72
2022/02/22 08:51:20;;;;;;;4.28;1.13;;;21.40;92.40;;;;;;5089532;28;20166;-72
2022/02/22 08:53:46;;;;;;;5.82;2.10;;;21.90;91.50;;;;;;5088348;28;20203;-72
2022/02/22 08:56:13;;;;;;;3.88;1.90;;;22.10;90.60;;;;;;5089347;28;20202;-71
2022/02/22 08:58:39;;;;;;;4.80;1.42;;;21.80;91.40;;;;;;5088983;28;20196;-72
2022/02/22 09:01:05;;;;;;;4.40;1.40;;;22.10;90.20;;;;;;5088131;28;20231;-73
2022/02/22 09:03:31;;;;;;;3.60;1.80;;;21.10;90.50;;;;;;5089158;28;20306;-72
2022/02/22 09:05:59;;;;;;;4.63;1.73;;;19.70;92.20;;;;;;5089412;28;20206;-72
2022/02/22 09:08:28;;;;;;;4.78;1.55;;;20.70;91.90;;;;;;5088997;28;20199;-72
2022/02/22 09:10:54;;;;;;;1.63;0.95;;;20.40;92.20;;;;;;5089358;28;20160;-72
2022/02/22 09:13:20;;;;;;;1.40;0.20;;;20.20;91.90;;;;;;5089348;28;20164;-71
2022/02/22 09:15:49;;;;;;;1.83;0.30;;;19.40;91.10;;;;;;5088514;28;20188;-71
2022/02/22 09:18:18;;;;;;;0.38;0.20;;;21.40;88.40;;;;;;5088835;28;20156;-71
2022/02/22 09:20:44;;;;;;;0.85;0.35;;;18.90;89.10;;;;;;5081439;28;20287;-71
2022/02/22 09:23:10;;;;;;;0.95;0.22;;;18.20;91.80;;;;;;5072608;28;20187;-69
2022/02/22 09:25:36;;;;;;;0.38;0.20;;;16.60;92.00;;;;;;5087937;28;20615;-70
2022/02/22 09:28:06;;;;;;;0.43;0.20;;;13.50;93.90;;;;;;5084382;28;20165;-72
2022/02/22 09:30:33;;;;;;;0.63;0.10;;;12.20;95.10;;;;;;5067644;28;20222;-73
2022/02/22 09:33:01;;;;;;;0.82;0.20;;;12.00;96.10;;;;;;5068848;28;20244;-73
2022/02/22 09:35:28;;;;;;;1.08;0.17;;;10.20;97.30;;;;;;5068763;28;20184;-73
2022/02/22 09:37:55;;;;;;;0.65;0.10;;;11.00;96.30;;;;;;5082974;28;20164;-73
2022/02/22 09:40:23;;;;;;;0.10;0.10;;;9.80;94.90;;;;;;5086752;28;20199;-72
2022/02/22 09:42:50;;;;;;;0.10;0.10;;;9.70;96.20;;;;;;5088871;28;20194;-73
2022/02/22 09:45:16;;;;;;;0.22;0.10;;;10.80;95.40;;;;;;5088887;28;20167;-75
2022/02/22 09:47:43;;;;;;;0.20;0.10;;;10.00;95.70;;;;;;5088924;28;20190;-72
2022/02/22 09:50:11;;;;;;;0.10;0.10;;;11.00;95.30;;;;;;5088285;28;20175;-73
2022/02/22 09:52:38;;;;;;;0.10;0.10;;;12.50;94.40;;;;;;5088818;28;20192;-73
2022/02/22 09:55:05;;;;;;;1.67;0.22;;;11.70;94.60;;;;;;5073026;28;20165;-73
2022/02/22 09:57:31;;;;;;;0.32;0.10;;;11.20;93.80;;;;;;5068341;28;20165;-75
2022/02/22 09:59:57;;;;;;;0.20;0.20;;;10.30;93.50;;;;;;5080583;28;20199;-74
2022/02/22 10:02:23;;;;;;;0.43;0.20;;;11.40;91.90;;;;;;5088331;28;20216;-72
2022/02/22 10:04:50;;;;;;;3.60;0.20;;;13.10;92.20;;;;;;5088598;28;20176;-72
2022/02/22 10:07:18;;;;;;;0.52;0.25;;;14.60;90.80;;;;;;5088648;28;20174;-73
2022/02/22 10:10:01;;;;;;;0.30;0.25;;;13.20;90.50;;;;;;5085955;28;20179;-72
2022/02/22 10:12:35;;;;;;;0.20;0.20;;;14.10;91.20;;;;;;5088285;28;20198;-72
2022/02/22 10:15:03;;;;;;;1.83;0.43;;;15.00;89.30;;;;;;5076912;28;20194;-74
2022/02/22 10:17:39;;;;;;;0.52;0.30;;;13.70;91.40;;;;;;5108545;28;20160;-72
2022/02/22 10:20:08;;;;;;;4.65;0.30;;;13.70;92.30;;;;;;5094762;28;20562;-74
2022/02/22 10:22:53;;;;;;;0.88;0.55;;;13.50;90.50;;;;;;5103650;28;20195;-73
2022/02/22 10:25:20;;;;;;;0.63;0.25;;;12.60;91.60;;;;;;5095201;28;20550;-73
2022/02/22 10:27:47;;;;;;;13.70;0.65;;;12.60;90.90;;;;;;5095140;28;20233;-73
2022/02/22 10:30:43;;;;;;;1.30;0.30;;;12.90;92.20;;;;;;5097735;28;20175;-73
2022/02/22 10:33:12;;;;;;;0.10;0.10;;;12.00;91.80;;;;;;5078945;28;20520;-73
2022/02/22 10:35:39;;;;;;;1.27;0.20;;;10.90;92.40;;;;;;5098800;28;20166;-74
2022/02/22 10:38:17;;;;;;;0.73;0.30;;;10.80;93.40;;;;;;5100328;28;20176;-75
2022/02/22 10:40:54;;;;;;;3.78;0.50;;;11.60;92.20;;;;;;5094601;28;20187;-75
2022/02/22 10:43:27;;;;;;;0.32;0.20;;;12.30;92.70;;;;;;5104653;28;20194;-74
2022/02/22 10:45:56;;;;;;;0.22;0.17;;;11.70;92.30;;;;;;5103259;28;20199;-74
2022/02/22 10:48:43;;;;;;;0.43;0.20;;;12.20;92.10;;;;;;5094741;28;20175;-74
2022/02/22 10:51:09;;;;;;;4.22;0.30;;;12.80;92.00;;;;;;5086880;28;20179;-75
2022/02/22 10:53:38;;;;;;;3.58;0.50;;;13.00;91.40;;;;;;5082318;28;20168;-74
2022/02/22 10:56:07;;;;;;;1.63;0.50;;;13.50;91.20;;;;;;5082284;28;20168;-74
2022/02/22 10:58:33;;;;;;;1.48;0.30;;;13.80;90.70;;;;;;5078559;28;20254;-73
2022/02/22 11:00:59;;;;;;;2.20;0.20;;;13.40;91.00;;;;;;5092135;28;20200;-74
2022/02/22 11:03:25;;;;;;;4.03;0.30;;;13.20;90.60;;;;;;5105154;28;20212;-74
2022/02/22 11:05:51;;;;;;;0.47;0.22;;;13.90;91.10;;;;;;5100611;28;20179;-73
2022/02/22 11:08:26;;;;;;;5.85;1.17;;;15.00;90.00;;;;;;5111084;28;20191;-73
2022/02/22 11:10:55;;;;;;;2.30;0.40;;;15.50;87.30;;;;;;5092892;28;20266;-74
2022/02/22 11:13:26;;;;;;;1.75;0.30;;;14.90;88.10;;;;;;5089878;28;20160;-73
2022/02/22 11:15:52;;;;;;;1.17;0.63;;;13.60;90.50;;;;;;5089594;28;20195;-73
2022/02/22 11:18:21;;;;;;;1.10;0.50;;;13.30;91.70;;;;;;5090591;28;20675;-72
2022/02/22 11:20:47;;;;;;;0.77;0.15;;;14.00;90.80;;;;;;5090025;28;20183;-73
2022/02/22 11:23:28;;;;;;;1.13;0.40;;;14.20;90.70;;;;;;5090353;28;20641;-74
2022/02/22 11:26:23;;;;;;;2.35;0.60;;;14.10;91.20;;;;;;5090867;28;20152;-73
2022/02/22 11:28:59;;;;;;;0.93;0.20;;;14.30;90.70;;;;;;5088592;28;20207;-73
2022/02/22 11:31:31;;;;;;;0.82;0.30;;;14.30;90.70;;;;;;5089009;28;20742;-74
2022/02/22 11:34:04;;;;;;;2.47;0.40;;;13.40;91.30;;;;;;5088850;28;20188;-73
2022/02/22 11:36:36;;;;;;;0.15;0.15;;;12.70;91.20;;;;;;5088890;28;20193;-74
2022/02/22 11:39:04;;;;;;;1.63;0.40;;;12.50;91.00;;;;;;5088142;28;20210;-73
2022/02/22 11:41:38;;;;;;;1.50;0.40;;;12.60;91.50;;;;;;5071131;28;20196;-72
2022/02/22 11:44:10;;;;;;;1.08;0.25;;;12.60;91.80;;;;;;5071929;28;20236;-74
2022/02/22 11:46:41;;;;;;;0.40;0.28;;;12.70;91.70;;;;;;5088584;28;20213;-74
2022/02/22 11:49:11;;;;;;;1.90;0.20;;;12.10;91.70;;;;;;5088435;28;20202;-73
2022/02/22 11:51:48;;;;;;;0.63;0.22;;;11.60;92.40;;;;;;5087271;28;20271;-74
2022/02/22 11:54:26;;;;;;;0.70;0.30;;;13.00;91.50;;;;;;5088404;28;20182;-73
2022/02/22 11:57:15;;;;;;;0.88;0.30;;;12.90;92.10;;;;;;5088334;28;20160;-73
2022/02/22 12:00:03;;;;;;;0.98;0.22;;;12.20;91.90;;;;;;5087831;28;20799;-73
2022/02/22 12:02:36;;;;;;;1.75;0.40;;;12.90;90.60;;;;;;5087740;28;20245;-73
2022/02/22 12:05:27;;;;;;;3.92;0.65;;;12.90;91.10;;;;;;5068736;28;20189;-73
2022/02/22 12:08:04;;;;;;;2.83;0.40;;;13.10;90.90;;;;;;5070198;28;20160;-74
2022/02/22 12:10:32;;;;;;;2.00;0.40;;;12.70;91.50;;;;;;5068800;28;20165;-73
2022/02/22 12:13:05;;;;;;;2.35;0.43;;;12.30;91.60;;;;;;5089490;28;20175;-73
2022/02/22 12:15:32;;;;;;;0.45;0.20;;;12.40;91.80;;;;;;5090050;28;20196;-73
2022/02/22 12:17:58;;;;;;;0.38;0.38;;;11.70;91.70;;;;;;5089930;28;20164;-72
2022/02/22 12:20:28;;;;;;;0.82;0.50;;;11.30;92.80;;;;;;5089799;28;20779;-73
2022/02/22 12:22:57;;;;;;;0.75;0.30;;;11.60;91.90;;;;;;5089652;28;20179;-74
2022/02/22 12:25:25;;;;;;;2.85;0.32;;;11.90;91.60;;;;;;5089986;28;20152;-73
2022/02/22 12:28:04;;;;;;;0.80;0.20;;;11.50;92.70;;;;;;5085161;28;20172;-73
2022/02/22 12:30:33;;;;;;;3.92;0.40;;;12.30;92.10;;;;;;5069784;28;20168;-73
2022/02/22 12:32:59;;;;;;;1.92;0.60;;;12.50;91.30;;;;;;5086023;28;20179;-75
2022/02/22 12:35:34;;;;;;;1.05;0.30;;;11.90;92.10;;;;;;5089597;28;20156;-74
2022/02/22 12:38:01;;;;;;;1.75;0.20;;;10.80;93.90;;;;;;5089676;28;20166;-73
2022/02/22 12:40:32;;;;;;;1.30;0.30;;;10.60;94.20;;;;;;5089736;28;20243;-73
2022/02/22 12:43:06;;;;;;;1.75;0.32;;;9.80;95.00;;;;;;5089346;28;20171;-73
2022/02/22 12:45:46;;;;;;;5.05;0.50;;;9.40;95.40;;;;;;5089706;28;20160;-74
2022/02/22 12:48:14;;;;;;;3.25;0.82;;;9.70;95.20;;;;;;5089430;28;20611;-74
2022/02/22 12:50:40;;;;;;;0.40;0.30;;;9.60;95.70;;;;;;5088807;28;20166;-73
2022/02/22 12:53:07;;;;;;;0.20;0.20;;;9.80;95.40;;;;;;5079481;28;20176;-73
2022/02/22 12:55:44;;;;;;;2.42;0.47;;;10.10;95.00;;;;;;5079326;28;20535;-73
2022/02/22 12:58:10;;;;;;;1.42;0.10;;;10.00;94.10;;;;;;5078772;28;20219;-73